Time,TemperatureF,DewpointF,PressureIn,WindDirection,WindDirectionDegrees,WindSpeedMPH,WindSpeedGustMPH,Humidity,HourlyPrecipIn,Conditions,Clouds,dailyrainin,SoftwareType,DateUTC
2013-07-14 00:01:00,70.9,69.4,30.12,South,174,0.0,0.0,95,0.00,,,0.00,WeatherCatV1.11B39,2013-07-14 04:01:00,
2013-07-14 00:06:00,70.9,69.4,30.12,South,174,0.0,0.0,95,0.00,,,0.00,WeatherCatV1.11B39,2013-07-14 04:06:00,
2013-07-14 00:11:00,70.7,69.2,30.12,South,174,0.0,0.0,95,0.00,,,0.00,WeatherCatV1.11B39,2013-07-14 04:11:00,
2013-07-14 00:16:00,70.9,69.4,30.12,South,174,0.0,0.0,95,0.00,,,0.00,WeatherCatV1.11B39,2013-07-14 04:16:00,
2013-07-14 00:21:00,71.1,69.6,30.12,South,174,0.0,0.0,95,0.00,,,0.00,WeatherCatV1.11B39,2013-07-14 04:21:00,
2013-07-14 00:26:00,71.0,69.5,30.12,South,174,0.0,0.0,95,0.00,,,0.00,WeatherCatV1.11B39,2013-07-14 04:26:00,
2013-07-14 00:31:00,70.9,69.4,30.12,South,174,0.0,0.0,95,0.00,,,0.00,WeatherCatV1.11B39,2013-07-14 04:31:00,
2013-07-14 00:36:00,70.7,69.2,30.12,South,174,0.0,0.0,95,0.00,,,0.00,WeatherCatV1.11B39,2013-07-14 04:36:00,
2013-07-14 00:41:00,70.8,69.3,30.13,South,174,0.0,0.0,95,0.00,,,0.00,WeatherCatV1.11B39,2013-07-14 04:41:00,
2013-07-14 00:47:00,70.7,69.2,30.12,South,174,0.0,0.0,95,0.00,,,0.00,WeatherCatV1.11B39,2013-07-14 04:47:00,
2013-07-14 00:52:00,70.7,69.2,30.12,South,174,0.0,0.0,95,0.00,,,0.00,WeatherCatV1.11B39,2013-07-14 04:52:00,
2013-07-14 00:57:00,70.9,69.4,30.12,South,174,0.0,0.0,95,0.00,,,0.00,WeatherCatV1.11B39,2013-07-14 04:57:00,
2013-07-14 01:02:00,71.1,69.6,30.12,South,174,0.0,0.0,95,0.00,,,0.00,WeatherCatV1.11B39,2013-07-14 05:02:00,
2013-07-14 01:07:00,71.1,69.9,30.12,South,174,0.0,0.0,96,0.00,,,0.00,WeatherCatV1.11B39,2013-07-14 05:07:00,
2013-07-14 01:12:00,71.1,69.9,30.12,South,174,0.0,0.0,96,0.00,,,0.00,WeatherCatV1.11B39,2013-07-14 05:12:00,
2013-07-14 01:17:00,71.1,69.9,30.12,South,174,0.0,0.0,96,0.00,,,0.00,WeatherCatV1.11B39,2013-07-14 05:17:00,
2013-07-14 01:22:00,70.9,69.7,30.12,South,174,0.0,0.0,96,0.00,,,0.00,WeatherCatV1.11B39,2013-07-14 05:22:00,
2013-07-14 01:27:00,70.9,69.7,30.12,South,174,0.0,0.0,96,0.00,,,0.00,WeatherCatV1.11B39,2013-07-14 05:27:00,
2013-07-14 01:32:00,70.7,69.5,30.12,South,174,0.0,0.0,96,0.00,,,0.00,WeatherCatV1.11B39,2013-07-14 05:32:00,
2013-07-14 01:37:00,70.7,69.5,30.11,South,174,0.0,0.0,96,0.00,,,0.00,WeatherCatV1.11B39,2013-07-14 05:37:00,
2013-07-14 01:42:00,70.7,69.8,30.12,South,174,0.0,0.0,97,0.00,,,0.00,WeatherCatV1.11B39,2013-07-14 05:42:00,
2013-07-14 01:47:00,70.5,69.3,30.11,South,174,0.0,0.0,96,0.00,,,0.00,WeatherCatV1.11B39,2013-07-14 05:47:00,
2013-07-14 01:52:00,70.5,69.6,30.11,South,174,0.0,0.0,97,0.00,,,0.00,WeatherCatV1.11B39,2013-07-14 05:52:00,
2013-07-14 01:57:00,70.6,69.7,30.11,South,174,0.0,0.0,97,0.00,,,0.00,WeatherCatV1.11B39,2013-07-14 05:57:00,
2013-07-14 02:02:00,70.4,69.2,30.11,South,174,0.0,0.0,96,0.00,,,0.00,WeatherCatV1.11B39,2013-07-14 06:02:00,
2013-07-14 02:07:00,70.4,69.5,30.11,South,174,0.0,0.0,97,0.00,,,0.00,WeatherCatV1.11B39,2013-07-14 06:07:00,
2013-07-14 02:12:00,70.2,69.3,30.11,South,174,0.0,0.0,97,0.00,,,0.00,WeatherCatV1.11B39,2013-07-14 06:12:00,
2013-07-14 02:17:00,70.2,69.3,30.12,South,174,0.0,0.0,97,0.00,,,0.00,WeatherCatV1.11B39,2013-07-14 06:17:00,
2013-07-14 02:22:00,70.2,69.3,30.12,South,174,0.0,0.0,97,0.00,,,0.00,WeatherCatV1.11B39,2013-07-14 06:22:00,
2013-07-14 02:27:00,70.2,69.3,30.12,South,174,0.0,0.0,97,0.00,,,0.00,WeatherCatV1.11B39,2013-07-14 06:27:00,
2013-07-14 02:32:00,70.2,69.3,30.11,South,174,0.0,0.0,97,0.00,,,0.00,WeatherCatV1.11B39,2013-07-14 06:32:00,
2013-07-14 02:37:00,70.2,69.3,30.11,South,174,0.0,0.0,97,0.00,,,0.00,WeatherCatV1.11B39,2013-07-14 06:37:00,
2013-07-14 02:42:00,70.6,69.7,30.11,South,174,0.0,0.0,97,0.00,,,0.00,WeatherCatV1.11B39,2013-07-14 06:42:00,
2013-07-14 02:47:00,70.6,69.7,30.11,South,174,0.0,0.0,97,0.00,,,0.00,WeatherCatV1.11B39,2013-07-14 06:47:00,
2013-07-14 02:52:00,70.5,69.6,30.11,South,174,0.0,0.0,97,0.00,,,0.00,WeatherCatV1.11B39,2013-07-14 06:52:00,
2013-07-14 02:57:00,70.5,69.6,30.11,South,174,0.0,0.0,97,0.00,,,0.00,WeatherCatV1.11B39,2013-07-14 06:57:00,
2013-07-14 03:02:00,70.2,69.3,30.11,South,174,0.0,0.0,97,0.00,,,0.00,WeatherCatV1.11B39,2013-07-14 07:02:00,
2013-07-14 03:07:00,69.7,68.8,30.11,South,174,0.0,0.0,97,0.00,,,0.00,WeatherCatV1.11B39,2013-07-14 07:07:00,
2013-07-14 03:12:00,69.7,68.8,30.11,South,174,0.0,0.0,97,0.00,,,0.00,WeatherCatV1.11B39,2013-07-14 07:12:00,
2013-07-14 03:17:00,69.7,68.8,30.11,South,174,0.0,0.0,97,0.00,,,0.00,WeatherCatV1.11B39,2013-07-14 07:17:00,
2013-07-14 03:22:00,69.6,68.7,30.11,South,174,0.0,0.0,97,0.00,,,0.00,WeatherCatV1.11B39,2013-07-14 07:22:00,
2013-07-14 03:27:00,69.5,68.6,30.11,South,174,0.0,0.0,97,0.00,,,0.00,WeatherCatV1.11B39,2013-07-14 07:27:00,
2013-07-14 03:32:00,69.5,68.6,30.11,South,174,0.0,0.0,97,0.00,,,0.00,WeatherCatV1.11B39,2013-07-14 07:32:00,
2013-07-14 03:37:00,69.4,68.5,30.11,South,174,0.0,0.0,97,0.00,,,0.00,WeatherCatV1.11B39,2013-07-14 07:37:00,
2013-07-14 03:42:00,69.4,68.5,30.11,South,174,0.0,0.0,97,0.00,,,0.00,WeatherCatV1.11B39,2013-07-14 07:42:00,
2013-07-14 03:47:00,69.4,68.5,30.11,South,174,0.0,0.0,97,0.00,,,0.00,WeatherCatV1.11B39,2013-07-14 07:47:00,
2013-07-14 03:52:00,69.4,68.5,30.11,South,174,0.0,0.0,97,0.00,,,0.00,WeatherCatV1.11B39,2013-07-14 07:52:00,
2013-07-14 03:57:00,69.4,68.5,30.10,South,174,0.0,0.0,97,0.00,,,0.00,WeatherCatV1.11B39,2013-07-14 07:57:00,
2013-07-14 04:02:00,69.4,68.5,30.11,South,174,0.0,0.0,97,0.00,,,0.00,WeatherCatV1.11B39,2013-07-14 08:02:00,
2013-07-14 04:07:00,69.2,68.3,30.11,South,174,0.0,0.0,97,0.00,,,0.00,WeatherCatV1.11B39,2013-07-14 08:07:00,
2013-07-14 04:12:00,69.2,68.3,30.11,South,174,0.0,0.0,97,0.00,,,0.00,WeatherCatV1.11B39,2013-07-14 08:12:00,
2013-07-14 04:17:00,69.2,68.3,30.10,South,174,0.0,0.0,97,0.00,,,0.00,WeatherCatV1.11B39,2013-07-14 08:17:00,
2013-07-14 04:22:00,69.0,68.1,30.11,South,174,0.0,0.0,97,0.00,,,0.00,WeatherCatV1.11B39,2013-07-14 08:22:00,
2013-07-14 04:27:00,69.1,68.2,30.10,South,174,0.0,0.0,97,0.00,,,0.00,WeatherCatV1.11B39,2013-07-14 08:27:00,
2013-07-14 04:32:00,68.9,68.0,30.10,South,174,0.0,0.0,97,0.00,,,0.00,WeatherCatV1.11B39,2013-07-14 08:32:00,
2013-07-14 04:37:00,69.1,68.2,30.10,South,174,0.0,0.0,97,0.00,,,0.00,WeatherCatV1.11B39,2013-07-14 08:37:00,
2013-07-14 04:42:00,69.1,68.5,30.10,South,174,0.0,0.0,98,0.00,,,0.00,WeatherCatV1.11B39,2013-07-14 08:42:00,
2013-07-14 04:47:00,69.1,68.5,30.10,South,174,0.0,0.0,98,0.00,,,0.00,WeatherCatV1.11B39,2013-07-14 08:47:00,
2013-07-14 04:52:00,69.1,68.2,30.10,South,174,0.0,0.0,97,0.00,,,0.00,WeatherCatV1.11B39,2013-07-14 08:52:00,
2013-07-14 04:57:00,69.2,68.3,30.10,South,174,0.0,0.0,97,0.00,,,0.00,WeatherCatV1.11B39,2013-07-14 08:57:00,
2013-07-14 05:02:00,69.4,68.5,30.11,South,174,0.0,0.0,97,0.00,,,0.00,WeatherCatV1.11B39,2013-07-14 09:02:00,
2013-07-14 05:07:00,69.6,68.7,30.10,South,174,0.0,0.0,97,0.00,,,0.00,WeatherCatV1.11B39,2013-07-14 09:07:00,
2013-07-14 05:12:00,69.8,69.2,30.11,South,174,0.0,0.0,98,0.00,,,0.00,WeatherCatV1.11B39,2013-07-14 09:12:00,
2013-07-14 05:17:00,70.2,69.6,30.11,South,185,0.0,0.0,98,0.00,,,0.00,WeatherCatV1.11B39,2013-07-14 09:17:00,
2013-07-14 05:22:00,70.7,70.1,30.11,SW,226,0.0,0.0,98,0.00,,,0.00,WeatherCatV1.11B39,2013-07-14 09:22:00,
2013-07-14 05:27:00,71.0,70.1,30.10,SW,230,0.0,0.0,97,0.00,,,0.00,WeatherCatV1.11B39,2013-07-14 09:27:00,
2013-07-14 05:32:00,71.2,70.3,30.11,SW,229,0.0,0.0,97,0.00,,,0.00,WeatherCatV1.11B39,2013-07-14 09:32:00,
2013-07-14 05:37:00,71.2,70.3,30.10,SW,229,0.0,0.0,97,0.00,,,0.00,WeatherCatV1.11B39,2013-07-14 09:37:00,
2013-07-14 05:42:00,71.2,70.3,30.10,SW,229,0.0,0.0,97,0.00,,,0.00,WeatherCatV1.11B39,2013-07-14 09:42:00,
2013-07-14 05:47:00,71.6,70.7,30.11,WNW,291,0.0,0.0,97,0.00,,,0.00,WeatherCatV1.11B39,2013-07-14 09:47:00,
2013-07-14 05:52:00,71.7,70.8,30.11,WNW,291,0.0,0.0,97,0.00,,,0.00,WeatherCatV1.11B39,2013-07-14 09:52:00,
2013-07-14 05:57:00,72.1,71.2,30.11,WNW,291,0.0,0.0,97,0.00,,,0.00,WeatherCatV1.11B39,2013-07-14 09:57:00,
2013-07-14 06:02:00,72.2,71.3,30.11,WNW,295,0.0,0.0,97,0.00,,,0.00,WeatherCatV1.11B39,2013-07-14 10:02:00,
2013-07-14 06:07:00,72.3,71.4,30.11,WNW,295,0.0,0.0,97,0.00,,,0.00,WeatherCatV1.11B39,2013-07-14 10:07:00,
2013-07-14 06:12:00,72.4,71.5,30.11,WNW,295,0.0,0.0,97,0.00,,,0.00,WeatherCatV1.11B39,2013-07-14 10:12:00,
2013-07-14 06:17:00,72.5,71.6,30.11,WNW,296,0.0,0.0,97,0.00,,,0.00,WeatherCatV1.11B39,2013-07-14 10:17:00,
2013-07-14 06:22:00,72.6,71.7,30.11,WNW,295,0.0,0.0,97,0.00,,,0.00,WeatherCatV1.11B39,2013-07-14 10:22:00,
2013-07-14 06:27:00,72.8,71.9,30.11,West,265,0.0,0.0,97,0.00,,,0.00,WeatherCatV1.11B39,2013-07-14 10:27:00,
2013-07-14 06:32:00,72.9,72.0,30.11,WSW,256,2.0,4.0,97,0.00,,,0.00,WeatherCatV1.11B39,2013-07-14 10:32:00,
2013-07-14 06:37:00,73.1,71.9,30.11,WNW,289,1.0,3.0,96,0.00,,,0.00,WeatherCatV1.11B39,2013-07-14 10:37:00,
2013-07-14 06:42:00,73.3,72.1,30.11,WNW,291,0.0,2.0,96,0.00,,,0.00,WeatherCatV1.11B39,2013-07-14 10:42:00,
2013-07-14 06:47:00,73.4,72.2,30.11,WNW,292,0.0,1.0,96,0.00,,,0.00,WeatherCatV1.11B39,2013-07-14 10:47:00,
2013-07-14 06:52:00,73.4,71.9,30.11,WNW,292,0.0,2.0,95,0.00,,,0.00,WeatherCatV1.11B39,2013-07-14 10:52:00,
2013-07-14 06:57:00,73.6,72.1,30.11,WNW,292,0.0,0.0,95,0.00,,,0.00,WeatherCatV1.11B39,2013-07-14 10:57:00,
2013-07-14 07:02:00,73.6,72.4,30.11,WNW,292,0.0,0.0,96,0.00,,,0.00,WeatherCatV1.11B39,2013-07-14 11:02:00,
2013-07-14 07:07:00,73.8,72.3,30.11,WNW,292,0.0,0.0,95,0.00,,,0.00,WeatherCatV1.11B39,2013-07-14 11:07:00,
2013-07-14 07:12:00,73.9,72.4,30.12,WNW,294,0.0,0.0,95,0.00,,,0.00,WeatherCatV1.11B39,2013-07-14 11:12:00,
2013-07-14 07:17:00,74.1,72.6,30.12,WNW,294,0.0,0.0,95,0.00,,,0.00,WeatherCatV1.11B39,2013-07-14 11:17:00,
2013-07-14 07:22:00,74.3,72.8,30.12,WNW,294,0.0,0.0,95,0.00,,,0.00,WeatherCatV1.11B39,2013-07-14 11:22:00,
2013-07-14 07:27:00,74.3,72.8,30.12,WNW,294,0.0,0.0,95,0.00,,,0.00,WeatherCatV1.11B39,2013-07-14 11:27:00,
2013-07-14 07:32:00,74.6,72.8,30.11,WNW,294,0.0,0.0,94,0.00,,,0.00,WeatherCatV1.11B39,2013-07-14 11:32:00,
2013-07-14 07:37:00,74.8,72.9,30.11,WNW,294,0.0,0.0,94,0.00,,,0.00,WeatherCatV1.11B39,2013-07-14 11:37:00,
2013-07-14 07:42:00,75.0,72.5,30.11,WNW,294,0.0,0.0,92,0.00,,,0.00,WeatherCatV1.11B39,2013-07-14 11:42:00,
2013-07-14 07:47:00,75.1,72.9,30.11,WNW,294,0.0,0.0,93,0.00,,,0.00,WeatherCatV1.11B39,2013-07-14 11:47:00,
2013-07-14 07:52:00,75.3,72.8,30.11,WNW,294,0.0,0.0,92,0.00,,,0.00,WeatherCatV1.11B39,2013-07-14 11:52:00,
2013-07-14 07:57:00,75.5,72.7,30.11,WNW,294,0.0,0.0,91,0.00,,,0.00,WeatherCatV1.11B39,2013-07-14 11:57:00,
2013-07-14 08:02:00,75.5,72.4,30.11,NNW,330,0.0,0.0,90,0.00,,,0.00,WeatherCatV1.11B39,2013-07-14 12:02:00,
2013-07-14 08:07:00,75.9,72.4,30.11,WNW,289,0.0,3.0,89,0.00,,,0.00,WeatherCatV1.11B39,2013-07-14 12:07:00,
2013-07-14 08:12:00,76.2,72.0,30.11,WNW,295,0.0,3.0,87,0.00,,,0.00,WeatherCatV1.11B39,2013-07-14 12:12:00,
2013-07-14 08:17:00,76.8,71.9,30.11,WSW,252,1.0,4.0,85,0.00,,,0.00,WeatherCatV1.11B39,2013-07-14 12:17:00,
2013-07-14 08:22:00,77.1,72.2,30.11,WNW,295,0.0,0.0,85,0.00,,,0.00,WeatherCatV1.11B39,2013-07-14 12:22:00,
2013-07-14 08:27:00,77.3,71.7,30.11,West,265,0.0,2.0,83,0.00,,,0.00,WeatherCatV1.11B39,2013-07-14 12:27:00,
2013-07-14 08:32:00,77.6,71.7,30.11,WNW,285,1.0,2.0,82,0.00,,,0.00,WeatherCatV1.11B39,2013-07-14 12:32:00,
2013-07-14 08:37:00,77.8,71.5,30.11,WNW,285,0.0,0.0,81,0.00,,,0.00,WeatherCatV1.11B39,2013-07-14 12:37:00,
2013-07-14 08:42:00,78.3,71.2,30.11,WNW,292,0.0,1.0,79,0.00,,,0.00,WeatherCatV1.11B39,2013-07-14 12:42:00,
2013-07-14 08:47:00,78.7,71.6,30.11,West,278,1.0,3.0,79,0.00,,,0.00,WeatherCatV1.11B39,2013-07-14 12:47:00,
2013-07-14 08:52:00,78.9,71.1,30.11,WNW,293,0.0,0.0,77,0.00,,,0.00,WeatherCatV1.11B39,2013-07-14 12:52:00,
2013-07-14 08:57:00,79.3,71.4,30.11,North,0,0.0,0.0,77,0.00,,,0.00,WeatherCatV1.11B39,2013-07-14 12:57:00,
2013-07-14 09:02:00,79.5,70.9,30.10,WNW,298,0.0,1.0,75,0.00,,,0.00,WeatherCatV1.11B39,2013-07-14 13:02:00,
2013-07-14 09:07:00,79.8,70.8,30.10,WNW,298,0.0,0.0,74,0.00,,,0.00,WeatherCatV1.11B39,2013-07-14 13:07:00,
2013-07-14 09:12:00,80.2,70.7,30.10,North,10,0.0,0.0,73,0.00,,,0.00,WeatherCatV1.11B39,2013-07-14 13:12:00,
2013-07-14 09:17:00,80.6,71.1,30.10,North,9,0.0,0.0,73,0.00,,,0.00,WeatherCatV1.11B39,2013-07-14 13:17:00,
2013-07-14 09:22:00,81.0,71.1,30.10,North,354,0.0,0.0,72,0.00,,,0.00,WeatherCatV1.11B39,2013-07-14 13:22:00,
2013-07-14 09:27:00,81.3,70.6,30.10,North,0,0.0,0.0,70,0.00,,,0.00,WeatherCatV1.11B39,2013-07-14 13:27:00,
2013-07-14 09:32:00,81.5,71.2,30.09,West,279,0.0,0.0,71,0.00,,,0.00,WeatherCatV1.11B39,2013-07-14 13:32:00,
2013-07-14 09:37:00,81.5,69.9,30.09,WNW,292,0.0,3.0,68,0.00,,,0.00,WeatherCatV1.11B39,2013-07-14 13:37:00,
2013-07-14 09:42:00,81.5,70.3,30.09,WNW,282,0.0,0.0,69,0.00,,,0.00,WeatherCatV1.11B39,2013-07-14 13:42:00,
2013-07-14 09:47:00,81.7,69.6,30.09,WNW,296,0.0,1.0,67,0.00,,,0.00,WeatherCatV1.11B39,2013-07-14 13:47:00,
2013-07-14 09:52:00,81.9,70.3,30.09,North,352,0.0,0.0,68,0.00,,,0.00,WeatherCatV1.11B39,2013-07-14 13:52:00,
2013-07-14 09:57:00,82.1,70.5,30.09,WNW,301,1.0,2.0,68,0.00,,,0.00,WeatherCatV1.11B39,2013-07-14 13:57:00,
2013-07-14 10:02:00,82.3,70.7,30.09,West,264,1.0,2.0,68,0.00,,,0.00,WeatherCatV1.11B39,2013-07-14 14:02:00,
2013-07-14 10:07:00,82.7,70.6,30.09,WNW,289,0.0,2.0,67,0.00,,,0.00,WeatherCatV1.11B39,2013-07-14 14:07:00,
2013-07-14 10:12:00,82.9,70.8,30.09,WNW,285,1.0,3.0,67,0.00,,,0.00,WeatherCatV1.11B39,2013-07-14 14:12:00,
2013-07-14 10:17:00,82.9,69.9,30.09,WNW,295,2.0,3.0,65,0.00,,,0.00,WeatherCatV1.11B39,2013-07-14 14:17:00,
2013-07-14 10:22:00,82.8,69.3,30.09,WNW,292,1.0,3.0,64,0.00,,,0.00,WeatherCatV1.11B39,2013-07-14 14:22:00,
2013-07-14 10:27:00,82.9,69.0,30.09,WNW,294,0.0,3.0,63,0.00,,,0.00,WeatherCatV1.11B39,2013-07-14 14:27:00,
2013-07-14 10:32:00,83.3,69.8,30.09,WNW,282,0.0,2.0,64,0.00,,,0.00,WeatherCatV1.11B39,2013-07-14 14:32:00,
2013-07-14 10:37:00,83.4,69.5,30.09,WNW,298,0.0,2.0,63,0.00,,,0.00,WeatherCatV1.11B39,2013-07-14 14:37:00,
2013-07-14 10:42:00,83.6,70.1,30.09,WNW,298,0.0,0.0,64,0.00,,,0.00,WeatherCatV1.11B39,2013-07-14 14:42:00,
2013-07-14 10:47:00,84.2,71.1,30.09,NW,320,0.0,0.0,65,0.00,,,0.00,WeatherCatV1.11B39,2013-07-14 14:47:00,
2013-07-14 10:52:00,84.6,70.1,30.09,NW,315,0.0,0.0,62,0.00,,,0.00,WeatherCatV1.11B39,2013-07-14 14:52:00,
2013-07-14 10:57:00,85.0,70.5,30.09,NW,315,0.0,0.0,62,0.00,,,0.00,WeatherCatV1.11B39,2013-07-14 14:57:00,
2013-07-14 11:02:00,85.0,69.0,30.09,WNW,295,0.0,2.0,59,0.00,,,0.00,WeatherCatV1.11B39,2013-07-14 15:02:00,
2013-07-14 11:07:00,84.8,68.8,30.09,WNW,295,1.0,5.0,59,0.00,,,0.00,WeatherCatV1.11B39,2013-07-14 15:07:00,
2013-07-14 11:12:00,84.8,69.3,30.09,WNW,296,0.0,0.0,60,0.00,,,0.00,WeatherCatV1.11B39,2013-07-14 15:12:00,
2013-07-14 11:17:00,85.2,70.7,30.09,WNW,296,0.0,0.0,62,0.00,,,0.00,WeatherCatV1.11B39,2013-07-14 15:17:00,
2013-07-14 11:22:00,85.6,70.1,30.09,WSW,258,0.0,0.0,60,0.00,,,0.00,WeatherCatV1.11B39,2013-07-14 15:22:00,
2013-07-14 11:27:00,85.4,69.4,30.08,WNW,297,0.0,2.0,59,0.00,,,0.00,WeatherCatV1.11B39,2013-07-14 15:27:00,
2013-07-14 11:32:00,85.2,70.7,30.08,WNW,297,0.0,0.0,62,0.00,,,0.00,WeatherCatV1.11B39,2013-07-14 15:32:00,
2013-07-14 11:37:00,85.2,69.2,30.09,West,278,0.0,3.0,59,0.00,,,0.00,WeatherCatV1.11B39,2013-07-14 15:37:00,
2013-07-14 11:42:00,85.4,68.9,30.08,WNW,294,0.0,2.0,58,0.00,,,0.00,WeatherCatV1.11B39,2013-07-14 15:42:00,
2013-07-14 11:47:00,85.6,69.1,30.08,WNW,295,0.0,3.0,58,0.00,,,0.00,WeatherCatV1.11B39,2013-07-14 15:47:00,
2013-07-14 11:52:00,85.8,69.8,30.08,WNW,293,3.0,4.0,59,0.00,,,0.00,WeatherCatV1.11B39,2013-07-14 15:52:00,
2013-07-14 11:57:00,85.8,69.3,30.08,WNW,296,0.0,0.0,58,0.00,,,0.00,WeatherCatV1.11B39,2013-07-14 15:57:00,
2013-07-14 12:02:00,86.0,69.5,30.08,West,265,0.0,2.0,58,0.00,,,0.00,WeatherCatV1.11B39,2013-07-14 16:02:00,
2013-07-14 12:07:00,86.2,69.7,30.08,West,274,0.0,0.0,58,0.00,,,0.00,WeatherCatV1.11B39,2013-07-14 16:07:00,
2013-07-14 12:12:00,86.0,68.4,30.08,West,268,0.0,3.0,56,0.00,,,0.00,WeatherCatV1.11B39,2013-07-14 16:12:00,
2013-07-14 12:17:00,85.6,69.1,30.08,WNW,293,0.0,3.0,58,0.00,,,0.00,WeatherCatV1.11B39,2013-07-14 16:17:00,
2013-07-14 12:22:00,85.6,69.1,30.08,WNW,293,0.0,0.0,58,0.00,,,0.00,WeatherCatV1.11B39,2013-07-14 16:22:00,
2013-07-14 12:27:00,85.8,69.3,30.07,WNW,293,0.0,1.0,58,0.00,,,0.00,WeatherCatV1.11B39,2013-07-14 16:27:00,
2013-07-14 12:32:00,85.6,68.6,30.08,WNW,293,1.0,3.0,57,0.00,,,0.00,WeatherCatV1.11B39,2013-07-14 16:32:00,
2013-07-14 12:37:00,85.0,67.5,30.08,WNW,295,1.0,3.0,56,0.00,,,0.00,WeatherCatV1.11B39,2013-07-14 16:37:00,
2013-07-14 12:42:00,85.4,69.4,30.07,WNW,295,0.0,0.0,59,0.00,,,0.00,WeatherCatV1.11B39,2013-07-14 16:42:00,
2013-07-14 12:47:00,85.8,69.3,30.08,WNW,295,0.0,0.0,58,0.00,,,0.00,WeatherCatV1.11B39,2013-07-14 16:47:00,
2013-07-14 12:52:00,86.6,69.5,30.07,WNW,295,0.0,0.0,57,0.00,,,0.00,WeatherCatV1.11B39,2013-07-14 16:52:00,
2013-07-14 12:57:00,86.8,68.7,30.07,WNW,295,0.0,0.0,55,0.00,,,0.00,WeatherCatV1.11B39,2013-07-14 16:57:00,
2013-07-14 13:02:00,87.1,69.5,30.07,WSW,257,0.0,4.0,56,0.00,,,0.00,WeatherCatV1.11B39,2013-07-14 17:02:00,
2013-07-14 13:07:00,87.3,69.6,30.07,WNW,282,0.0,2.0,56,0.00,,,0.00,WeatherCatV1.11B39,2013-07-14 17:07:00,
2013-07-14 13:12:00,87.1,66.7,30.07,WNW,291,0.0,7.0,51,0.00,,,0.00,WeatherCatV1.11B39,2013-07-14 17:12:00,
2013-07-14 13:17:00,87.3,68.6,30.07,WNW,294,0.0,0.0,54,0.00,,,0.00,WeatherCatV1.11B39,2013-07-14 17:17:00,
2013-07-14 13:22:00,87.5,69.8,30.06,WNW,294,0.0,0.0,56,0.00,,,0.00,WeatherCatV1.11B39,2013-07-14 17:22:00,
2013-07-14 13:27:00,87.9,69.7,30.06,WNW,294,0.0,0.0,55,0.00,,,0.00,WeatherCatV1.11B39,2013-07-14 17:27:00,
2013-07-14 13:32:00,88.5,68.0,30.06,WNW,294,0.0,0.0,51,0.00,,,0.00,WeatherCatV1.11B39,2013-07-14 17:32:00,
2013-07-14 13:37:00,88.5,68.0,30.06,WNW,293,0.0,0.0,51,0.00,,,0.00,WeatherCatV1.11B39,2013-07-14 17:37:00,
2013-07-14 13:42:00,88.1,68.2,30.06,WSW,255,1.0,4.0,52,0.00,,,0.00,WeatherCatV1.11B39,2013-07-14 17:42:00,
2013-07-14 13:47:00,87.7,67.9,30.06,WNW,282,0.0,0.0,52,0.00,,,0.00,WeatherCatV1.11B39,2013-07-14 17:47:00,
2013-07-14 13:52:00,87.7,66.7,30.06,West,259,0.0,3.0,50,0.00,,,0.00,WeatherCatV1.11B39,2013-07-14 17:52:00,
2013-07-14 13:53:00,87.9,65.7,30.06,West,259,0.0,3.0,48,0.00,,,0.00,WeatherCatV1.11B39,2013-07-14 17:53:00,
2013-07-14 13:58:00,88.3,68.4,30.05,West,259,3.0,3.0,52,0.00,,,0.00,WeatherCatV1.11B39,2013-07-14 17:58:00,
2013-07-14 14:03:00,88.3,67.8,30.05,WSW,258,0.0,0.0,51,0.00,,,0.00,WeatherCatV1.11B39,2013-07-14 18:03:00,
2013-07-14 14:08:00,88.3,69.0,30.05,West,277,0.0,0.0,53,0.00,,,0.00,WeatherCatV1.11B39,2013-07-14 18:08:00,
2013-07-14 14:13:00,88.5,67.4,30.05,West,277,0.0,0.0,50,0.00,,,0.00,WeatherCatV1.11B39,2013-07-14 18:13:00,
2013-07-14 14:18:00,88.7,67.6,30.05,West,277,0.0,0.0,50,0.00,,,0.00,WeatherCatV1.11B39,2013-07-14 18:18:00,
2013-07-14 14:23:00,88.5,68.6,30.06,West,277,0.0,0.0,52,0.00,,,0.00,WeatherCatV1.11B39,2013-07-14 18:23:00,
2013-07-14 14:29:00,87.9,68.6,30.05,ENE,64,0.0,0.0,53,0.00,,,0.00,WeatherCatV1.11B39,2013-07-14 18:29:00,
2013-07-14 14:34:00,87.5,69.8,30.05,ENE,63,0.0,0.0,56,0.00,,,0.00,WeatherCatV1.11B39,2013-07-14 18:34:00,
2013-07-14 14:39:00,86.9,69.3,30.05,ENE,63,0.0,0.0,56,0.00,,,0.00,WeatherCatV1.11B39,2013-07-14 18:39:00,
2013-07-14 14:44:00,86.4,70.3,30.05,ENE,63,0.0,0.0,59,0.00,,,0.00,WeatherCatV1.11B39,2013-07-14 18:44:00,
2013-07-14 14:49:00,86.0,70.0,30.05,ENE,63,0.0,0.0,59,0.00,,,0.00,WeatherCatV1.11B39,2013-07-14 18:49:00,
2013-07-14 14:54:00,85.6,69.6,30.05,ENE,63,0.0,0.0,59,0.00,,,0.00,WeatherCatV1.11B39,2013-07-14 18:54:00,
2013-07-14 14:59:00,85.0,71.0,30.05,ENE,66,0.0,2.0,63,0.00,,,0.00,WeatherCatV1.11B39,2013-07-14 18:59:00,
2013-07-14 15:04:00,84.0,71.8,30.05,ENE,63,0.0,0.0,67,0.00,,,0.00,WeatherCatV1.11B39,2013-07-14 19:04:00,
2013-07-14 15:09:00,83.5,71.4,30.05,ENE,63,0.0,0.0,67,0.00,,,0.00,WeatherCatV1.11B39,2013-07-14 19:09:00,
2013-07-14 15:14:00,83.4,71.7,30.05,ENE,61,0.0,0.0,68,0.00,,,0.00,WeatherCatV1.11B39,2013-07-14 19:14:00,
2013-07-14 15:19:00,82.9,72.1,30.05,NE,56,0.0,0.0,70,0.00,,,0.00,WeatherCatV1.11B39,2013-07-14 19:19:00,
2013-07-14 15:24:00,82.5,72.5,30.05,NE,55,0.0,0.0,72,0.00,,,0.00,WeatherCatV1.11B39,2013-07-14 19:24:00,
2013-07-14 15:29:00,82.1,72.2,30.04,NE,55,0.0,0.0,72,0.00,,,0.00,WeatherCatV1.11B39,2013-07-14 19:29:00,
2013-07-14 15:34:00,81.7,72.6,30.05,NE,55,0.0,0.0,74,0.00,,,0.00,WeatherCatV1.11B39,2013-07-14 19:34:00,
2013-07-14 15:39:00,81.3,72.2,30.04,NE,55,0.0,0.0,74,0.00,,,0.00,WeatherCatV1.11B39,2013-07-14 19:39:00,
2013-07-14 15:44:00,81.3,72.2,30.04,NE,55,0.0,0.0,74,0.00,,,0.00,WeatherCatV1.11B39,2013-07-14 19:44:00,
2013-07-14 15:49:00,81.3,73.4,30.04,NE,55,0.0,0.0,77,0.00,,,0.00,WeatherCatV1.11B39,2013-07-14 19:49:00,
2013-07-14 15:54:00,81.3,73.4,30.04,NE,55,0.0,0.0,77,0.00,,,0.00,WeatherCatV1.11B39,2013-07-14 19:54:00,
2013-07-14 15:59:00,81.3,74.1,30.04,NE,55,0.0,0.0,79,0.00,,,0.00,WeatherCatV1.11B39,2013-07-14 19:59:00,
2013-07-14 16:04:00,81.3,73.8,30.04,NE,55,0.0,0.0,78,0.00,,,0.00,WeatherCatV1.11B39,2013-07-14 20:04:00,
2013-07-14 16:09:00,81.5,74.3,30.04,NE,55,0.0,0.0,79,0.00,,,0.00,WeatherCatV1.11B39,2013-07-14 20:09:00,
2013-07-14 16:14:00,81.9,74.7,30.04,NE,55,0.0,0.0,79,0.00,,,0.00,WeatherCatV1.11B39,2013-07-14 20:14:00,
2013-07-14 16:19:00,82.1,74.9,30.04,NE,55,0.0,0.0,79,0.00,,,0.00,WeatherCatV1.11B39,2013-07-14 20:19:00,
2013-07-14 16:24:00,81.9,74.7,30.04,NE,55,0.0,0.0,79,0.00,,,0.00,WeatherCatV1.11B39,2013-07-14 20:24:00,
2013-07-14 16:29:00,82.1,74.9,30.03,NE,55,0.0,0.0,79,0.00,,,0.00,WeatherCatV1.11B39,2013-07-14 20:29:00,
2013-07-14 16:34:00,82.1,74.9,30.04,NE,55,0.0,0.0,79,0.00,,,0.00,WeatherCatV1.11B39,2013-07-14 20:34:00,
2013-07-14 16:39:00,81.9,74.7,30.03,NE,55,0.0,0.0,79,0.00,,,0.00,WeatherCatV1.11B39,2013-07-14 20:39:00,
2013-07-14 16:44:00,82.1,75.3,30.03,NE,54,0.0,0.0,80,0.00,,,0.00,WeatherCatV1.11B39,2013-07-14 20:44:00,
2013-07-14 16:49:00,82.3,74.7,30.03,NE,54,0.0,0.0,78,0.00,,,0.00,WeatherCatV1.11B39,2013-07-14 20:49:00,
2013-07-14 16:54:00,82.3,74.3,30.04,NE,54,0.0,0.0,77,0.00,,,0.00,WeatherCatV1.11B39,2013-07-14 20:54:00,
2013-07-14 16:59:00,82.7,74.3,30.04,NE,54,0.0,0.0,76,0.00,,,0.00,WeatherCatV1.11B39,2013-07-14 20:59:00,
2013-07-14 17:04:00,82.9,73.7,30.03,NE,54,0.0,0.0,74,0.00,,,0.00,WeatherCatV1.11B39,2013-07-14 21:04:00,
2013-07-14 17:09:00,83.1,73.1,30.03,NE,54,0.0,0.0,72,0.00,,,0.00,WeatherCatV1.11B39,2013-07-14 21:09:00,
2013-07-14 17:14:00,83.3,73.7,30.03,ENE,61,0.0,0.0,73,0.00,,,0.00,WeatherCatV1.11B39,2013-07-14 21:14:00,
2013-07-14 17:19:00,83.2,73.2,30.03,ENE,60,0.0,0.0,72,0.00,,,0.00,WeatherCatV1.11B39,2013-07-14 21:19:00,
2013-07-14 17:24:00,83.2,73.6,30.03,ENE,60,0.0,0.0,73,0.00,,,0.00,WeatherCatV1.11B39,2013-07-14 21:24:00,
2013-07-14 17:29:00,83.4,74.2,30.03,ENE,60,0.0,0.0,74,0.00,,,0.00,WeatherCatV1.11B39,2013-07-14 21:29:00,
2013-07-14 17:34:00,83.5,74.3,30.03,ENE,60,0.0,0.0,74,0.00,,,0.00,WeatherCatV1.11B39,2013-07-14 21:34:00,
2013-07-14 17:39:00,83.4,73.8,30.03,ENE,60,0.0,0.0,73,0.00,,,0.00,WeatherCatV1.11B39,2013-07-14 21:39:00,
2013-07-14 17:44:00,83.4,73.4,30.03,ENE,60,0.0,0.0,72,0.00,,,0.00,WeatherCatV1.11B39,2013-07-14 21:44:00,
2013-07-14 17:49:00,83.4,74.6,30.03,ENE,60,0.0,0.0,75,0.00,,,0.00,WeatherCatV1.11B39,2013-07-14 21:49:00,
2013-07-14 17:54:00,83.1,75.1,30.03,ENE,60,0.0,0.0,77,0.00,,,0.00,WeatherCatV1.11B39,2013-07-14 21:54:00,
2013-07-14 17:59:00,82.5,74.5,30.03,ENE,62,0.0,0.0,77,0.00,,,0.00,WeatherCatV1.11B39,2013-07-14 21:59:00,
2013-07-14 18:04:00,82.3,74.7,30.03,ENE,62,0.0,0.0,78,0.00,,,0.00,WeatherCatV1.11B39,2013-07-14 22:04:00,
2013-07-14 18:09:00,82.1,74.9,30.03,ENE,62,0.0,0.0,79,0.00,,,0.00,WeatherCatV1.11B39,2013-07-14 22:09:00,
2013-07-14 18:14:00,82.1,75.7,30.03,ENE,62,0.0,0.0,81,0.00,,,0.00,WeatherCatV1.11B39,2013-07-14 22:14:00,
2013-07-14 18:19:00,82.1,75.7,30.03,ENE,62,0.0,0.0,81,0.00,,,0.00,WeatherCatV1.11B39,2013-07-14 22:19:00,
2013-07-14 18:24:00,81.9,75.5,30.03,ENE,62,0.0,0.0,81,0.00,,,0.00,WeatherCatV1.11B39,2013-07-14 22:24:00,
2013-07-14 18:29:00,81.9,75.5,30.03,ENE,62,0.0,0.0,81,0.00,,,0.00,WeatherCatV1.11B39,2013-07-14 22:29:00,
2013-07-14 18:34:00,81.9,75.5,30.03,ENE,62,0.0,0.0,81,0.00,,,0.00,WeatherCatV1.11B39,2013-07-14 22:34:00,
2013-07-14 18:39:00,81.9,75.8,30.03,ENE,62,0.0,0.0,82,0.00,,,0.00,WeatherCatV1.11B39,2013-07-14 22:39:00,
2013-07-14 18:44:00,81.9,75.8,30.03,ENE,62,0.0,0.0,82,0.00,,,0.00,WeatherCatV1.11B39,2013-07-14 22:44:00,
2013-07-14 18:49:00,81.9,75.8,30.03,ENE,66,0.0,0.0,82,0.00,,,0.00,WeatherCatV1.11B39,2013-07-14 22:49:00,
2013-07-14 18:54:00,81.7,75.3,30.03,ENE,66,0.0,0.0,81,0.00,,,0.00,WeatherCatV1.11B39,2013-07-14 22:54:00,
2013-07-14 18:59:00,81.7,75.3,30.03,ENE,66,0.0,0.0,81,0.00,,,0.00,WeatherCatV1.11B39,2013-07-14 22:59:00,
2013-07-14 19:04:00,81.7,74.9,30.03,ENE,66,0.0,0.0,80,0.00,,,0.00,WeatherCatV1.11B39,2013-07-14 23:04:00,
2013-07-14 19:09:00,81.9,75.5,30.03,ENE,66,0.0,0.0,81,0.00,,,0.00,WeatherCatV1.11B39,2013-07-14 23:09:00,
2013-07-14 19:14:00,81.9,75.1,30.03,ENE,66,0.0,0.0,80,0.00,,,0.00,WeatherCatV1.11B39,2013-07-14 23:14:00,
2013-07-14 19:19:00,81.7,74.5,30.03,ENE,66,0.0,0.0,79,0.00,,,0.00,WeatherCatV1.11B39,2013-07-14 23:19:00,
2013-07-14 19:24:00,81.5,74.3,30.03,ENE,66,0.0,0.0,79,0.00,,,0.00,WeatherCatV1.11B39,2013-07-14 23:24:00,
2013-07-14 19:29:00,81.3,74.1,30.02,ENE,66,0.0,0.0,79,0.00,,,0.00,WeatherCatV1.11B39,2013-07-14 23:29:00,
2013-07-14 19:34:00,81.3,74.1,30.03,ENE,66,0.0,0.0,79,0.00,,,0.00,WeatherCatV1.11B39,2013-07-14 23:34:00,
2013-07-14 19:39:00,81.1,73.9,30.03,ENE,65,0.0,0.0,79,0.00,,,0.00,WeatherCatV1.11B39,2013-07-14 23:39:00,
2013-07-14 19:44:00,81.0,74.2,30.03,ENE,65,0.0,0.0,80,0.00,,,0.00,WeatherCatV1.11B39,2013-07-14 23:44:00,
2013-07-14 19:49:00,80.8,74.4,30.03,ENE,65,0.0,0.0,81,0.00,,,0.00,WeatherCatV1.11B39,2013-07-14 23:49:00,
2013-07-14 19:54:00,80.6,74.6,30.03,ENE,63,0.0,0.0,82,0.00,,,0.00,WeatherCatV1.11B39,2013-07-14 23:54:00,
2013-07-14 19:59:00,80.4,74.4,30.03,ENE,63,0.0,0.0,82,0.00,,,0.00,WeatherCatV1.11B39,2013-07-14 23:59:00,
2013-07-14 20:04:00,80.4,74.7,30.03,ENE,62,0.0,0.0,83,0.00,,,0.00,WeatherCatV1.11B39,2013-07-15 00:04:00,
2013-07-14 20:09:00,80.2,74.6,30.03,ENE,62,0.0,0.0,83,0.00,,,0.00,WeatherCatV1.11B39,2013-07-15 00:09:00,
2013-07-14 20:14:00,80.0,74.4,30.03,ENE,62,0.0,0.0,83,0.00,,,0.00,WeatherCatV1.11B39,2013-07-15 00:14:00,
2013-07-14 20:19:00,79.7,74.1,30.03,ENE,62,0.0,0.0,83,0.00,,,0.00,WeatherCatV1.11B39,2013-07-15 00:19:00,
2013-07-14 20:24:00,79.6,74.3,30.03,ENE,62,0.0,0.0,84,0.00,,,0.00,WeatherCatV1.11B39,2013-07-15 00:24:00,
2013-07-14 20:29:00,79.3,74.4,30.03,ENE,62,0.0,0.0,85,0.00,,,0.00,WeatherCatV1.11B39,2013-07-15 00:29:00,
2013-07-14 20:34:00,78.9,74.0,30.03,ENE,61,0.0,0.0,85,0.00,,,0.00,WeatherCatV1.11B39,2013-07-15 00:34:00,
2013-07-14 20:39:00,78.5,73.6,30.03,ENE,61,0.0,0.0,85,0.00,,,0.00,WeatherCatV1.11B39,2013-07-15 00:39:00,
2013-07-14 20:44:00,78.3,73.4,30.03,ENE,61,0.0,0.0,85,0.00,,,0.00,WeatherCatV1.11B39,2013-07-15 00:44:00,
2013-07-14 20:49:00,78.4,73.9,30.04,ENE,61,0.0,0.0,86,0.00,,,0.00,WeatherCatV1.11B39,2013-07-15 00:49:00,
2013-07-14 20:54:00,78.0,73.5,30.04,ENE,61,0.0,0.0,86,0.00,,,0.00,WeatherCatV1.11B39,2013-07-15 00:54:00,
2013-07-14 20:59:00,78.0,73.8,30.04,ENE,61,0.0,0.0,87,0.00,,,0.00,WeatherCatV1.11B39,2013-07-15 00:59:00,
2013-07-14 21:04:00,77.8,73.6,30.04,ENE,61,0.0,0.0,87,0.00,,,0.00,WeatherCatV1.11B39,2013-07-15 01:04:00,
2013-07-14 21:09:00,77.6,73.4,30.04,ENE,61,0.0,0.0,87,0.00,,,0.00,WeatherCatV1.11B39,2013-07-15 01:09:00,
2013-07-14 21:14:00,77.4,73.2,30.04,ENE,61,0.0,0.0,87,0.00,,,0.00,WeatherCatV1.11B39,2013-07-15 01:14:00,
2013-07-14 21:19:00,77.3,73.5,30.04,ENE,61,0.0,0.0,88,0.00,,,0.00,WeatherCatV1.11B39,2013-07-15 01:19:00,
2013-07-14 21:24:00,77.1,73.3,30.05,ENE,61,0.0,0.0,88,0.00,,,0.00,WeatherCatV1.11B39,2013-07-15 01:24:00,
2013-07-14 21:29:00,76.8,73.0,30.04,ENE,60,0.0,0.0,88,0.00,,,0.00,WeatherCatV1.11B39,2013-07-15 01:29:00,
2013-07-14 21:34:00,76.6,73.1,30.05,ENE,60,0.0,0.0,89,0.00,,,0.00,WeatherCatV1.11B39,2013-07-15 01:34:00,
2013-07-14 21:39:00,76.4,72.6,30.04,ENE,60,0.0,0.0,88,0.00,,,0.00,WeatherCatV1.11B39,2013-07-15 01:39:00,
2013-07-14 21:44:00,76.4,72.9,30.05,ENE,60,0.0,0.0,89,0.00,,,0.00,WeatherCatV1.11B39,2013-07-15 01:44:00,
2013-07-14 21:49:00,76.2,73.0,30.04,ENE,60,0.0,0.0,90,0.00,,,0.00,WeatherCatV1.11B39,2013-07-15 01:49:00,
2013-07-14 21:54:00,76.2,73.0,30.04,ENE,60,0.0,0.0,90,0.00,,,0.00,WeatherCatV1.11B39,2013-07-15 01:54:00,
2013-07-14 21:59:00,76.2,73.0,30.05,ENE,60,0.0,0.0,90,0.00,,,0.00,WeatherCatV1.11B39,2013-07-15 01:59:00,
2013-07-14 22:04:00,76.1,72.9,30.04,ENE,59,0.0,0.0,90,0.00,,,0.00,WeatherCatV1.11B39,2013-07-15 02:04:00,
2013-07-14 22:09:00,76.1,72.9,30.04,ENE,59,0.0,0.0,90,0.00,,,0.00,WeatherCatV1.11B39,2013-07-15 02:09:00,
2013-07-14 22:14:00,76.1,72.9,30.04,ENE,59,0.0,0.0,90,0.00,,,0.00,WeatherCatV1.11B39,2013-07-15 02:14:00,
2013-07-14 22:19:00,76.1,73.3,30.04,ENE,59,0.0,0.0,91,0.00,,,0.00,WeatherCatV1.11B39,2013-07-15 02:19:00,
2013-07-14 22:24:00,76.0,73.2,30.04,ENE,59,0.0,0.0,91,0.00,,,0.00,WeatherCatV1.11B39,2013-07-15 02:24:00,
2013-07-14 22:29:00,75.9,73.1,30.03,ENE,58,0.0,0.0,91,0.00,,,0.00,WeatherCatV1.11B39,2013-07-15 02:29:00,
2013-07-14 22:34:00,75.9,73.4,30.03,ENE,58,0.0,0.0,92,0.00,,,0.00,WeatherCatV1.11B39,2013-07-15 02:34:00,
2013-07-14 22:39:00,75.7,72.9,30.03,ENE,58,0.0,0.0,91,0.00,,,0.00,WeatherCatV1.11B39,2013-07-15 02:39:00,
2013-07-14 22:44:00,75.5,72.7,30.04,ENE,58,0.0,0.0,91,0.00,,,0.00,WeatherCatV1.11B39,2013-07-15 02:44:00,
2013-07-14 22:49:00,75.5,72.7,30.04,ENE,58,0.0,0.0,91,0.00,,,0.00,WeatherCatV1.11B39,2013-07-15 02:49:00,
2013-07-14 22:54:00,75.5,73.0,30.04,ENE,58,0.0,0.0,92,0.00,,,0.00,WeatherCatV1.11B39,2013-07-15 02:54:00,
2013-07-14 22:59:00,75.5,73.0,30.04,ENE,58,0.0,0.0,92,0.00,,,0.00,WeatherCatV1.11B39,2013-07-15 02:59:00,
2013-07-14 23:04:00,75.5,72.7,30.03,ENE,58,0.0,0.0,91,0.00,,,0.00,WeatherCatV1.11B39,2013-07-15 03:04:00,
2013-07-14 23:09:00,75.5,73.0,30.03,ENE,58,0.0,0.0,92,0.00,,,0.00,WeatherCatV1.11B39,2013-07-15 03:09:00,
2013-07-14 23:14:00,75.3,72.8,30.03,ENE,58,0.0,0.0,92,0.00,,,0.00,WeatherCatV1.11B39,2013-07-15 03:14:00,
2013-07-14 23:19:00,75.4,73.2,30.03,ENE,58,0.0,0.0,93,0.00,,,0.00,WeatherCatV1.11B39,2013-07-15 03:19:00,
2013-07-14 23:24:00,75.1,72.6,30.03,ENE,58,0.0,0.0,92,0.00,,,0.00,WeatherCatV1.11B39,2013-07-15 03:24:00,
2013-07-14 23:29:00,75.2,73.0,30.03,ENE,58,0.0,0.0,93,0.00,,,0.00,WeatherCatV1.11B39,2013-07-15 03:29:00,
2013-07-14 23:34:00,75.2,73.0,30.03,ENE,58,0.0,0.0,93,0.00,,,0.00,WeatherCatV1.11B39,2013-07-15 03:34:00,
2013-07-14 23:39:00,75.1,72.9,30.03,ENE,58,0.0,0.0,93,0.00,,,0.00,WeatherCatV1.11B39,2013-07-15 03:39:00,
2013-07-14 23:44:00,75.1,72.9,30.03,ENE,58,0.0,0.0,93,0.00,,,0.00,WeatherCatV1.11B39,2013-07-15 03:44:00,
2013-07-14 23:49:00,75.1,73.2,30.03,ENE,58,0.0,0.0,94,0.00,,,0.00,WeatherCatV1.11B39,2013-07-15 03:49:00,
2013-07-14 23:54:00,75.1,72.9,30.03,ENE,58,0.0,0.0,93,0.00,,,0.00,WeatherCatV1.11B39,2013-07-15 03:54:00,
2013-07-14 23:59:00,75.0,73.1,30.03,ENE,58,0.0,0.0,94,0.00,,,0.00,WeatherCatV1.11B39,2013-07-15 03:59:00,